Latest Coastal Weather Observations for Troughton Island

IDD60701

Issued at 12:21 pm CST Saturday 10 December 2016 (issued every 10 minutes, with the page automatically refreshed every 10 minutes)

About coastal observations | Map of coastal stations | Coastal observations for NT | Marine services | Other Formats
Station Details ID: 001007 Name: TROUGHTON ISLAND Lat: -13.75 Lon: 126.15 Height: 6.0 m
Data from the previous 72 hours. | See also: Recent months at Troughton Island
Date/Time
CST
Temp
°C
Wind Pressure Rain since
9am
mm
Weather Cloud Vis
km
Sea
Height
m
Swell
Dir  Spd
kts
Gust
kts
hPa Trend Height
m
Period
s
Dir
10/12:00pm 32.8 SSE 13 15 1009.9 - 0.0 - - - - - - -
10/11:30am 33.1 SE 13 15 1010.4 - 0.0 - - - - - - -
10/11:00am 32.7 SE 13 15 1010.6 - 0.0 - - - - - - -
10/10:30am 33.2 S 9 12 1010.8 - 0.0 - - - - - - -
10/10:00am 33.3 S 11 13 1010.5 - 0.0 - - - - - - -
10/09:30am 32.4 SSW 11 12 1010.4 - 0.0 - - - - - - -
10/09:00am 31.5 SSW 12 14 1010.3 - 0.0 - - - - - - -
10/08:30am 31.0 S 15 19 1010.3 - 0.0 - - - - - - -
10/08:00am 30.8 SSW 14 17 1010.0 - 0.0 - - - - - - -
10/07:30am 31.2 SW 9 11 1009.9 - 0.0 - - - - - - -
10/07:00am 30.8 SW 8 10 1009.2 - 0.0 - - - - - - -
10/06:30am 30.4 WSW 6 8 1008.6 - 0.0 - - - - - - -
10/06:00am 30.2 WSW 5 7 1008.5 - 0.0 - - - - - - -
10/05:30am 30.2 W 5 6 1008.2 - 0.0 - - - - - - -
10/05:00am 30.3 WNW 6 7 1007.9 - 0.0 - - - - - - -
10/04:30am 30.2 NW 7 8 1007.8 - 0.0 - - - - - - -
10/04:00am 30.3 NW 8 8 1007.6 - 0.0 - - - - - - -
10/03:30am 30.4 WNW 6 8 1007.6 - 0.0 - - - - - - -
10/03:00am 30.5 WNW 8 9 1007.8 - 0.0 - - - - - - -
10/02:30am 30.6 NW 8 10 1007.6 - 0.0 - - - - - - -
10/02:00am 30.5 NW 7 9 1007.9 - 0.0 - - - - - - -
10/01:30am 30.7 NW 8 9 1008.0 - 0.0 - - - - - - -
10/01:00am 30.7 NNW 8 9 1008.2 - 0.0 - - - - - - -
10/12:30am 30.8 NNW 7 8 1008.5 - 0.0 - - - - - - -
10/12:00am 31.2 NNW 8 10 1008.7 - 0.0 - - - - - - -
 
Date/Time
CST
Temp
°C
Wind Pressure Rain since
9am
mm
Weather Cloud Vis
km
Sea
Height
m
Swell
Dir  Spd
kts
Gust
kts
hPa Trend Height
m
Period
s
Dir
09/11:30pm 31.2 NNW 8 9 1008.7 - 0.0 - - - - - - -
09/11:00pm 31.1 NW 7 9 1008.9 - 0.0 - - - - - - -
09/10:30pm 31.2 NW 8 10 1008.9 - 0.0 - - - - - - -
09/10:00pm 31.2 NNW 8 10 1008.7 - 0.0 - - - - - - -
09/09:30pm 31.2 NW 9 11 1008.2 - 0.0 - - - - - - -
09/09:00pm 31.1 NNW 9 12 1007.4 - 0.0 - - - - - - -
09/08:30pm 31.3 NNW 11 12 1007.3 - 0.0 - - - - - - -
09/08:00pm 31.3 NNW 11 13 1006.9 - 0.0 - - - - - - -
09/07:30pm 31.6 NNW 11 12 1006.6 - 0.0 - - - - - - -
09/07:00pm 32.1 NNW 10 13 1006.0 - 0.0 - - - - - - -
09/06:30pm 32.8 NNW 11 13 1005.8 - 0.0 - - - - - - -
09/06:00pm 33.1 NNW 12 14 1005.2 - 0.0 - - - - - - -
09/05:30pm 33.2 NW 11 13 1004.9 - 0.0 - - - - - - -
09/05:00pm 32.9 NW 11 13 1005.2 - 0.0 - - - - - - -
09/04:30pm 33.3 NW 10 11 1005.0 - 0.0 - - - - - - -
09/04:00pm 33.7 NW 9 11 1005.4 - 0.0 - - - - - - -
09/03:30pm 33.7 NW 9 11 1005.6 - 0.0 - - - - - - -
09/03:00pm 34.2 NW 9 11 1005.8 - 0.0 - - - - - - -
09/02:30pm 34.5 NW 9 11 1005.9 - 0.0 - - - - - - -
09/02:00pm 33.7 NW 8 11 1006.4 - 0.0 - - - - - - -
09/01:30pm 33.7 NW 8 10 1006.8 - 0.0 - - - - - - -
09/01:00pm 34.0 WNW 7 9 1007.1 - 0.0 - - - - - - -
09/12:30pm 33.7 W 7 8 1007.2 - 0.0 - - - - - - -
09/12:00pm 34.4 WSW 7 9 1007.7 - 0.0 - - - - - - -
09/11:30am 33.9 WSW 8 9 1007.8 - 0.0 - - - - - - -
09/11:00am 34.2 SW 9 11 1008.3 - 0.0 - - - - - - -
09/10:30am 34.1 SW 9 11 1008.5 - 0.0 - - - - - - -
09/10:00am 33.0 SW 11 13 1008.6 - 0.0 - - - - - - -
09/09:30am 32.8 SSW 12 15 1008.4 - 0.0 - - - - - - -
09/09:00am 32.7 SW 12 14 1008.3 - 0.0 - - - - - - -
09/08:30am 31.8 WSW 12 14 1008.0 - 0.0 - - - - - - -
09/08:00am 31.5 WSW 11 13 1007.7 - 0.0 - - - - - - -
09/07:30am 30.9 WSW 11 13 1007.5 - 0.0 - - - - - - -
09/07:00am 30.4 W 11 13 1007.1 - 0.0 - - - - - - -
09/06:30am 30.3 W 12 13 1006.7 - 0.0 - - - - - - -
09/06:00am 30.3 W 12 14 1006.3 - 0.0 - - - - - - -
09/05:30am 30.4 W 13 16 1006.3 - 0.0 - - - - - - -
09/05:00am 30.2 W 13 15 1006.2 - 0.0 - - - - - - -
09/04:30am 30.3 W 12 14 1006.1 - 0.0 - - - - - - -
09/04:00am 30.2 W 12 14 1006.0 - 0.0 - - - - - - -
09/03:30am 30.3 W 12 14 1005.8 - 0.0 - - - - - - -
09/03:00am 30.4 W 12 14 1005.9 - 0.0 - - - - - - -
09/02:30am 30.3 W 11 13 1006.0 - 0.0 - - - - - - -
09/02:00am 30.4 W 12 14 1006.3 - 0.0 - - - - - - -
09/01:30am 30.4 W 11 13 1006.5 - 0.0 - - - - - - -
09/01:00am 30.4 WSW 12 14 1006.7 - 0.0 - - - - - - -
09/12:30am 30.4 WSW 11 13 1007.0 - 0.0 - - - - - - -
09/12:00am 30.6 WSW 12 14 1007.2 - 0.0 - - - - - - -
 
Date/Time
CST
Temp
°C
Wind Pressure Rain since
9am
mm
Weather Cloud Vis
km
Sea
Height
m
Swell
Dir  Spd
kts
Gust
kts
hPa Trend Height
m
Period
s
Dir
08/11:30pm 30.6 WSW 13 15 1007.1 - 0.0 - - - - - - -
08/11:00pm 30.6 W 12 14 1007.1 - 0.0 - - - - - - -
08/10:30pm 30.6 W 13 14 1006.8 - 0.0 - - - - - - -
08/10:00pm 30.7 W 13 14 1006.7 - 0.0 - - - - - - -
08/09:30pm 30.9 W 12 14 1006.4 - 0.0 - - - - - - -
08/09:00pm 30.8 W 11 14 1006.1 - 0.0 - - - - - - -
08/08:30pm 31.0 W 13 15 1006.0 - 0.0 - - - - - - -
08/08:00pm 31.0 W 13 16 1005.7 - 0.0 - - - - - - -
08/07:30pm 31.0 WSW 13 15 1005.6 - 0.0 - - - - - - -
08/07:00pm 31.3 WSW 15 18 1005.3 - 0.0 - - - - - - -
08/06:30pm 31.8 WSW 14 16 1005.3 - 0.0 - - - - - - -
08/06:00pm 32.2 W 12 15 1005.1 - 0.0 - - - - - - -
08/05:30pm 32.7 W 12 15 1004.7 - 0.0 - - - - - - -
08/05:00pm 33.1 WNW 14 16 1004.4 - 0.0 - - - - - - -
08/04:30pm 33.4 W 14 16 1004.4 - 0.0 - - - - - - -
08/04:00pm 33.9 W 14 17 1004.4 - 0.0 - - - - - - -
08/03:30pm 33.6 W 14 17 1005.0 - 0.0 - - - - - - -
08/03:00pm 33.7 W 15 17 1005.1 - 0.0 - - - - - - -
08/02:30pm 34.1 W 14 16 1005.5 - 0.0 - - - - - - -
08/02:00pm 34.4 W 13 16 1006.0 - 0.0 - - - - - - -
08/01:30pm 34.5 WSW 13 16 1006.4 - 0.0 - - - - - - -
08/01:00pm 34.5 WSW 13 15 1006.8 - 0.0 - - - - - - -
08/12:30pm 34.0 WSW 13 15 1007.1 - 0.0 - - - - - - -
08/12:00pm 33.9 WSW 13 16 1007.5 - 0.0 - - - - - - -
08/11:30am 33.5 WSW 13 16 1007.9 - 0.0 - - - - - - -
08/11:00am 33.4 WSW 12 15 1007.9 - 0.0 - - - - - - -
08/10:30am 33.3 WSW 12 14 1008.0 - 0.0 - - - - - - -
08/10:00am 33.1 WSW 13 16 1007.9 - 0.0 - - - - - - -
08/09:30am 32.7 WSW 14 16 1008.1 - 0.0 - - - - - - -
08/09:00am 32.3 WSW 15 17 1007.8 - 0.0 - - - - - - -
08/08:30am 31.9 WSW 15 17 1007.7 - 0.0 - - - - - - -
08/08:00am 31.3 WSW 14 17 1007.6 - 0.0 - - - - - - -
08/07:30am 30.8 WSW 15 18 1007.5 - 0.0 - - - - - - -
08/07:00am 30.4 WSW 14 17 1007.2 - 0.0 - - - - - - -
08/06:30am 30.3 WSW 15 17 1006.8 - 0.0 - - - - - - -
08/06:00am 30.2 WSW 14 17 1006.5 - 0.0 - - - - - - -
08/05:30am 30.3 WSW 14 16 1006.3 - 0.0 - - - - - - -
08/05:00am 30.4 WSW 14 17 1006.2 - 0.0 - - - - - - -
08/04:30am 30.3 WSW 15 18 1006.0 - 0.0 - - - - - - -
08/04:00am 30.5 WSW 14 17 1006.1 - 0.0 - - - - - - -
08/03:30am 30.4 WSW 15 18 1006.3 - 0.0 - - - - - - -
08/03:00am 30.4 WSW 15 17 1006.4 - 0.0 - - - - - - -
08/02:30am 30.4 W 13 16 1006.7 - 0.0 - - - - - - -
08/02:00am 30.5 W 13 15 1006.9 - 0.0 - - - - - - -
08/01:30am 30.6 W 12 15 1007.3 - 0.0 - - - - - - -
08/01:00am 30.5 W 12 14 1007.5 - 0.0 - - - - - - -
08/12:30am 30.5 W 10 12 1007.9 - 0.0 - - - - - - -
08/12:00am 30.5 W 12 14 1008.1 - 0.0 - - - - - - -
 
Date/Time
CST
Temp
°C
Wind Pressure Rain since
9am
mm
Weather Cloud Vis
km
Sea
Height
m
Swell
Dir  Spd
kts
Gust
kts
hPa Trend Height
m
Period
s
Dir
07/11:30pm 30.5 WNW 12 14 1008.0 - 0.0 - - - - - - -
07/11:00pm 30.6 WNW 11 13 1008.0 - 0.0 - - - - - - -
07/10:30pm 30.7 WNW 11 13 1008.1 - 0.0 - - - - - - -
07/10:00pm 30.7 WNW 13 15 1008.0 - 0.0 - - - - - - -
07/09:30pm 30.8 W 14 15 1008.1 - 0.0 - - - - - - -
07/09:00pm 30.9 W 13 15 1008.0 - 0.0 - - - - - - -
07/08:30pm 31.0 W 12 14 1007.5 - 0.0 - - - - - - -
07/08:00pm 31.0 W 12 14 1007.4 - 0.0 - - - - - - -
07/07:30pm 31.2 W 13 14 1006.9 - 0.0 - - - - - - -
07/07:00pm 31.4 W 14 15 1006.0 - 0.0 - - - - - - -
07/06:30pm 31.8 W 13 15 1005.8 - 0.0 - - - - - - -
07/06:00pm 32.5 W 13 16 1005.7 - 0.0 - - - - - - -
07/05:30pm 32.7 W 14 16 1005.8 - 0.0 - - - - - - -
07/05:00pm 32.6 WNW 14 16 1005.8 - 0.0 - - - - - - -
07/04:30pm 32.9 WNW 14 16 1006.0 - 0.0 - - - - - - -
07/04:00pm 33.2 WNW 13 15 1006.4 - 0.0 - - - - - - -
07/03:30pm 33.6 WNW 13 14 1006.9 - 0.0 - - - - - - -
07/03:00pm 34.0 WNW 13 15 1007.1 - 0.0 - - - - - - -
07/02:30pm 34.5 WNW 11 13 1007.5 - 0.0 - - - - - - -
07/02:00pm 34.2 W 11 13 1007.7 - 0.0 - - - - - - -

Other Formats:

Comma delimited format used in spreadsheet applications
http://www.bom.gov.au/fwo/IDD60701/IDD60701.94102.axf

JavaScript Object Notation format (JSON) in row-major order
http://www.bom.gov.au/fwo/IDD60701/IDD60701.94102.json